Time;durP1;ratioP1;P1;durP2;ratioP2;P2;SDS_P1;SDS_P2;PMS_P1;PMS_P2;Temp;Humidity;BMP_temperature;BMP_pressure;BME280_temperature;BME280_humidity;BME280_pressure;Samples;Min_cycle;Max_cycle;Signal;HPM_P1;HPM_P2
2022/03/26 00:00:39;;;;;;;140.07;68.95;;;;;;;4.18;100.00;100065.72;2082516;28;20196;-72
2022/03/26 00:01:50;;;;;;;126.07;66.00;;;;;;;4.17;100.00;100067.56;2082541;28;20650;-72
2022/03/26 00:02:53;;;;;;;150.15;68.90;;;;;;;4.16;100.00;100065.13;2082557;28;20673;-72
2022/03/26 00:03:56;;;;;;;150.00;68.05;;;;;;;4.20;100.00;100068.94;2082554;28;20196;-72
2022/03/26 00:04:58;;;;;;;137.52;66.78;;;;;;;4.17;100.00;100069.38;2082518;28;20279;-72
2022/03/26 00:06:01;;;;;;;134.68;66.80;;;;;;;4.18;100.00;100068.38;2082007;28;20659;-72
2022/03/26 00:07:03;;;;;;;148.80;69.57;;;;;;;4.17;100.00;100064.94;2082546;28;20176;-72
2022/03/26 00:08:05;;;;;;;145.15;68.68;;;;;;;4.20;100.00;100071.56;2082367;28;20628;-72
2022/03/26 00:09:07;;;;;;;136.98;67.30;;;;;;;4.19;100.00;100057.56;2082458;28;20184;-72
2022/03/26 00:10:10;;;;;;;139.73;68.13;;;;;;;4.19;100.00;100062.06;2081473;28;20664;-72
2022/03/26 00:11:11;;;;;;;138.00;66.72;;;;;;;4.19;100.00;100067.34;2074051;28;20205;-72
2022/03/26 00:12:13;;;;;;;147.13;68.30;;;;;;;4.15;100.00;100060.88;2073994;28;20246;-72
2022/03/26 00:13:15;;;;;;;132.18;66.07;;;;;;;4.09;100.00;100062.63;2081879;28;20191;-71
2022/03/26 00:14:17;;;;;;;134.27;66.75;;;;;;;4.08;100.00;100058.34;2081956;28;20674;-72
2022/03/26 00:15:19;;;;;;;135.18;67.97;;;;;;;4.04;100.00;100062.50;2081848;28;20748;-72
2022/03/26 00:16:22;;;;;;;138.77;67.72;;;;;;;4.01;100.00;100056.88;2082415;28;20214;-72
2022/03/26 00:17:24;;;;;;;140.68;67.60;;;;;;;4.00;100.00;100047.31;2082453;28;20195;-72
2022/03/26 00:18:29;;;;;;;140.45;67.53;;;;;;;4.00;100.00;100055.25;2082641;28;20673;-72
2022/03/26 00:19:31;;;;;;;142.00;66.65;;;;;;;3.96;100.00;100047.78;2082517;28;20650;-72
2022/03/26 00:20:34;;;;;;;138.68;67.47;;;;;;;3.95;100.00;100046.19;2082337;28;20188;-72
2022/03/26 00:21:37;;;;;;;140.52;68.00;;;;;;;3.95;100.00;100048.03;2081399;28;20313;-72
2022/03/26 00:22:39;;;;;;;131.90;66.47;;;;;;;3.94;100.00;100046.41;2081808;28;20203;-72
2022/03/26 00:23:41;;;;;;;136.80;66.40;;;;;;;3.90;100.00;100045.25;2081952;28;20544;-72
2022/03/26 00:24:43;;;;;;;146.00;68.72;;;;;;;3.89;100.00;100046.28;2073879;28;20231;-72
2022/03/26 00:25:48;;;;;;;134.73;67.40;;;;;;;3.87;100.00;100046.50;2082025;28;20188;-72
2022/03/26 00:26:49;;;;;;;147.02;69.70;;;;;;;3.85;100.00;100050.41;2081710;28;20183;-72
2022/03/26 00:27:52;;;;;;;140.32;67.05;;;;;;;3.85;100.00;100045.94;2073940;28;20267;-72
2022/03/26 00:28:54;;;;;;;136.18;67.13;;;;;;;3.83;100.00;100044.56;2073761;28;20219;-72
2022/03/26 00:29:58;;;;;;;142.98;70.20;;;;;;;3.79;100.00;100046.03;2073821;28;20205;-72
2022/03/26 00:31:00;;;;;;;135.55;67.15;;;;;;;3.75;100.00;100045.69;2081792;28;20192;-72
2022/03/26 00:32:04;;;;;;;136.77;66.45;;;;;;;3.71;100.00;100041.09;2082371;28;20199;-72
2022/03/26 00:33:07;;;;;;;143.65;69.88;;;;;;;3.67;100.00;100043.38;2082280;28;20604;-72
2022/03/26 00:34:11;;;;;;;146.75;69.53;;;;;;;3.64;100.00;100043.81;2082305;28;20231;-72
2022/03/26 00:35:13;;;;;;;140.95;67.35;;;;;;;3.61;100.00;100041.63;2081615;28;20621;-72
2022/03/26 00:36:15;;;;;;;138.45;69.25;;;;;;;3.60;100.00;100050.59;2072949;28;20269;-72
2022/03/26 00:37:18;;;;;;;135.52;70.68;;;;;;;3.58;100.00;100045.53;2081394;28;20310;-72
2022/03/26 00:38:19;;;;;;;142.20;67.90;;;;;;;3.54;100.00;100046.22;2082262;28;20195;-72
2022/03/26 00:39:22;;;;;;;138.13;67.55;;;;;;;3.55;100.00;100045.16;2082318;28;20188;-72
2022/03/26 00:40:24;;;;;;;143.63;71.38;;;;;;;3.52;100.00;100038.53;2082327;28;20540;-72
2022/03/26 00:41:28;;;;;;;149.75;70.90;;;;;;;3.47;100.00;100046.28;2081110;28;20207;-72
2022/03/26 00:42:30;;;;;;;145.23;69.32;;;;;;;3.40;100.00;100038.50;2081767;28;20192;-73
2022/03/26 00:43:32;;;;;;;148.85;70.13;;;;;;;3.37;100.00;100038.13;2081473;28;20204;-72
2022/03/26 00:44:35;;;;;;;144.00;71.55;;;;;;;3.35;100.00;100048.09;2081650;28;20708;-72
2022/03/26 00:45:38;;;;;;;145.80;70.30;;;;;;;3.32;100.00;100041.44;2082220;28;20743;-72
2022/03/26 00:46:40;;;;;;;142.65;70.60;;;;;;;3.29;100.00;100039.25;2081818;28;20610;-72
2022/03/26 00:47:43;;;;;;;145.93;71.38;;;;;;;3.26;100.00;100044.16;2073919;28;20201;-72
2022/03/26 00:48:45;;;;;;;151.27;69.85;;;;;;;3.21;100.00;100038.75;2081707;28;20282;-72
2022/03/26 00:49:49;;;;;;;148.68;73.57;;;;;;;3.20;100.00;100042.41;2081499;28;20294;-72
2022/03/26 00:50:52;;;;;;;145.00;73.65;;;;;;;3.14;100.00;100038.84;2081251;28;20199;-71
2022/03/26 00:51:53;;;;;;;143.05;72.22;;;;;;;3.12;100.00;100039.06;2081851;28;20199;-72
2022/03/26 00:52:57;;;;;;;141.07;72.00;;;;;;;3.08;100.00;100037.91;2073502;28;20236;-72
2022/03/26 00:54:00;;;;;;;150.55;73.32;;;;;;;3.08;100.00;100045.00;2081541;28;20611;-72
2022/03/26 00:55:03;;;;;;;152.63;72.63;;;;;;;3.03;100.00;100042.22;2073453;28;20228;-72
2022/03/26 00:56:05;;;;;;;152.23;71.95;;;;;;;3.03;100.00;100044.88;2080978;28;20227;-72
2022/03/26 00:57:09;;;;;;;145.70;71.70;;;;;;;3.02;100.00;100045.91;2082081;28;20234;-72
2022/03/26 00:58:11;;;;;;;146.27;72.20;;;;;;;3.01;100.00;100045.09;2082143;28;20191;-72
2022/03/26 00:59:15;;;;;;;138.43;70.45;;;;;;;3.02;100.00;100040.63;2081489;28;20230;-72
2022/03/26 01:00:17;;;;;;;145.95;70.88;;;;;;;3.04;100.00;100039.41;2081609;28;20226;-72
2022/03/26 01:01:20;;;;;;;137.90;69.60;;;;;;;3.04;100.00;100047.31;2082413;28;20226;-72
2022/03/26 01:02:22;;;;;;;139.98;69.80;;;;;;;3.04;100.00;100043.84;2081408;28;20273;-72
2022/03/26 01:03:24;;;;;;;142.48;70.85;;;;;;;3.05;100.00;100046.28;2081524;28;20197;-72
2022/03/26 01:04:28;;;;;;;146.80;69.20;;;;;;;3.04;100.00;100039.41;2081681;28;20230;-72
2022/03/26 01:05:34;;;;;;;155.20;72.07;;;;;;;3.08;100.00;100039.75;2073972;28;20284;-72
2022/03/26 01:06:36;;;;;;;147.02;69.75;;;;;;;3.09;100.00;100038.72;2081384;28;20303;-71
2022/03/26 01:07:39;;;;;;;144.25;70.80;;;;;;;3.08;100.00;100037.91;2081668;28;20192;-72
2022/03/26 01:08:40;;;;;;;150.15;69.95;;;;;;;3.09;100.00;100038.72;2081452;28;20612;-72
2022/03/26 01:09:43;;;;;;;140.27;70.53;;;;;;;3.13;100.00;100039.88;2081564;28;20591;-72
2022/03/26 01:10:44;;;;;;;152.38;70.15;;;;;;;3.12;100.00;100038.25;2081101;28;20211;-72
2022/03/26 01:11:47;;;;;;;145.55;71.70;;;;;;;3.15;100.00;100043.09;2073660;28;20596;-72
2022/03/26 01:12:49;;;;;;;153.30;72.90;;;;;;;3.14;100.00;100033.59;2081472;28;20720;-72
2022/03/26 01:13:55;;;;;;;140.45;69.55;;;;;;;3.12;100.00;100035.63;2082031;28;20704;-72
2022/03/26 01:15:01;;;;;;;150.93;71.80;;;;;;;3.08;100.00;100037.09;2082369;28;20263;-72
2022/03/26 01:16:04;;;;;;;141.52;68.78;;;;;;;3.10;100.00;100032.41;2081484;28;20207;-72
2022/03/26 01:17:07;;;;;;;155.98;73.03;;;;;;;3.06;100.00;100028.63;2081439;28;20210;-72
2022/03/26 01:18:10;;;;;;;146.32;70.45;;;;;;;3.02;100.00;100030.88;2082023;28;20195;-72
2022/03/26 01:19:12;;;;;;;143.70;71.82;;;;;;;3.02;100.00;100036.16;2081393;28;20195;-72
2022/03/26 01:20:14;;;;;;;153.85;71.40;;;;;;;2.99;100.00;100035.81;2081448;28;20202;-72
2022/03/26 01:21:17;;;;;;;146.85;73.40;;;;;;;2.99;100.00;100031.34;2080859;28;20223;-72
2022/03/26 01:22:18;;;;;;;144.65;71.72;;;;;;;2.98;100.00;100035.00;2081605;28;20219;-72
2022/03/26 01:23:21;;;;;;;150.77;71.60;;;;;;;2.95;100.00;100030.16;2082073;28;20223;-72
2022/03/26 01:24:22;;;;;;;142.07;70.70;;;;;;;2.92;100.00;100032.44;2081744;28;20288;-72
2022/03/26 01:25:25;;;;;;;147.60;73.68;;;;;;;2.88;100.00;100029.44;2073288;28;20196;-72
2022/03/26 01:26:27;;;;;;;158.65;72.68;;;;;;;2.87;100.00;100034.91;2081690;28;20192;-72
2022/03/26 01:27:29;;;;;;;141.35;70.47;;;;;;;2.83;100.00;100035.38;2081974;28;20188;-72
2022/03/26 01:28:32;;;;;;;146.90;70.13;;;;;;;2.81;100.00;100036.63;2082296;28;20195;-72
2022/03/26 01:29:38;;;;;;;139.85;68.63;;;;;;;2.80;100.00;100038.47;2082176;28;20685;-72
2022/03/26 01:30:40;;;;;;;146.82;72.55;;;;;;;2.81;100.00;100036.63;2081639;28;20200;-72
2022/03/26 01:31:42;;;;;;;144.85;71.57;;;;;;;2.78;100.00;100034.41;2081460;28;20192;-72
2022/03/26 01:32:44;;;;;;;150.57;73.38;;;;;;;2.78;100.00;100032.63;2081497;28;20294;-72
2022/03/26 01:33:48;;;;;;;143.57;68.93;;;;;;;2.77;100.00;100035.44;2081440;28;20626;-71
2022/03/26 01:34:50;;;;;;;139.98;70.38;;;;;;;2.77;100.00;100038.88;2081607;28;20253;-72
2022/03/26 01:35:53;;;;;;;144.82;73.32;;;;;;;2.75;100.00;100030.41;2080908;28;20218;-72
2022/03/26 01:36:58;;;;;;;140.18;71.65;;;;;;;2.78;100.00;100040.53;2082041;28;20287;-72
2022/03/26 01:38:01;;;;;;;136.30;69.72;;;;;;;2.76;100.00;100037.28;2082002;28;20192;-72
2022/03/26 01:39:04;;;;;;;143.40;72.95;;;;;;;2.75;100.00;100037.50;2082232;28;20184;-72
2022/03/26 01:40:07;;;;;;;149.93;72.95;;;;;;;2.72;100.00;100036.13;2082037;28;20252;-72
2022/03/26 01:41:09;;;;;;;148.88;70.68;;;;;;;2.76;100.00;100036.47;2081934;28;20192;-72
2022/03/26 01:42:11;;;;;;;154.60;73.57;;;;;;;2.73;100.00;100037.72;2081983;28;20541;-71
2022/03/26 01:43:13;;;;;;;146.15;70.65;;;;;;;2.75;100.00;100038.31;2082122;28;20211;-72
2022/03/26 01:44:15;;;;;;;141.02;72.30;;;;;;;2.71;100.00;100037.16;2082001;28;20227;-72
2022/03/26 01:45:17;;;;;;;151.70;72.07;;;;;;;2.70;100.00;100042.66;2081331;28;20642;-71
2022/03/26 01:46:20;;;;;;;138.20;71.68;;;;;;;2.68;100.00;100040.22;2073472;28;20208;-72
2022/03/26 01:47:23;;;;;;;141.45;72.10;;;;;;;2.63;100.00;100034.81;2081403;28;20678;-72
2022/03/26 01:48:24;;;;;;;148.98;73.32;;;;;;;2.60;100.00;100035.22;2081257;28;20203;-72
2022/03/26 01:49:27;;;;;;;149.13;71.97;;;;;;;2.57;100.00;100032.25;2073472;28;20224;-72
2022/03/26 01:50:31;;;;;;;147.95;72.25;;;;;;;2.52;100.00;100032.91;2081400;28;20590;-72
2022/03/26 01:51:33;;;;;;;137.38;70.93;;;;;;;2.48;100.00;100034.34;2080866;28;20230;-72
2022/03/26 01:52:37;;;;;;;138.95;69.13;;;;;;;2.44;100.00;100034.00;2081193;28;20200;-71
2022/03/26 01:53:39;;;;;;;139.13;69.40;;;;;;;2.46;100.00;100046.94;2081934;28;20723;-72
2022/03/26 01:54:43;;;;;;;145.00;73.07;;;;;;;2.45;100.00;100037.44;2081974;28;20302;-72
2022/03/26 01:55:45;;;;;;;142.00;70.90;;;;;;;2.40;100.00;100034.66;2081232;28;20207;-72
2022/03/26 01:56:47;;;;;;;146.02;69.32;;;;;;;2.35;100.00;100040.56;2081271;28;20192;-72
2022/03/26 01:57:49;;;;;;;142.68;71.40;;;;;;;2.29;100.00;100036.19;2082098;28;20317;-72
2022/03/26 01:58:51;;;;;;;135.38;67.85;;;;;;;2.26;100.00;100031.34;2082045;28;20199;-72
2022/03/26 01:59:52;;;;;;;141.10;72.45;;;;;;;2.22;100.00;100035.44;2081222;28;20572;-72
2022/03/26 02:00:55;;;;;;;145.65;72.55;;;;;;;2.17;100.00;100038.72;2073475;28;20204;-72
2022/03/26 02:01:57;;;;;;;148.63;72.13;;;;;;;2.17;100.00;100044.00;2073202;28;20570;-72
2022/03/26 02:02:59;;;;;;;146.18;74.82;;;;;;;2.16;100.00;100031.81;2073210;28;20209;-72
2022/03/26 02:04:02;;;;;;;153.40;71.05;;;;;;;2.12;100.00;100038.56;2073483;28;20227;-72
2022/03/26 02:05:04;;;;;;;143.98;72.47;;;;;;;2.12;100.00;100029.84;2073655;28;20323;-72
2022/03/26 02:06:06;;;;;;;144.63;73.47;;;;;;;2.09;100.00;100040.81;2080741;28;21744;-71
2022/03/26 02:07:08;;;;;;;149.57;74.15;;;;;;;2.06;100.00;100034.16;2082768;28;20623;-72
2022/03/26 02:08:11;;;;;;;147.73;72.78;;;;;;;2.03;100.00;100037.22;2083365;28;20258;-71
2022/03/26 02:09:14;;;;;;;145.45;72.47;;;;;;;1.96;100.00;100031.19;2083055;28;20203;-71
2022/03/26 02:10:18;;;;;;;146.00;72.40;;;;;;;1.92;100.00;100038.72;2075241;28;20202;-72
2022/03/26 02:11:19;;;;;;;139.48;70.72;;;;;;;1.90;100.00;100037.31;2082862;28;20191;-72
2022/03/26 02:12:26;;;;;;;152.18;73.13;;;;;;;1.87;100.00;100038.56;2082791;28;20191;-72
2022/03/26 02:13:27;;;;;;;145.60;73.28;;;;;;;1.85;100.00;100031.91;2075225;28;20212;-72
2022/03/26 02:14:29;;;;;;;157.95;76.82;;;;;;;1.91;100.00;100039.75;2080907;28;20769;-71
2022/03/26 02:15:31;;;;;;;153.02;74.57;;;;;;;1.96;100.00;100039.91;2082814;28;20199;-71
2022/03/26 02:16:35;;;;;;;159.95;77.18;;;;;;;2.02;100.00;100045.34;2083610;28;20195;-72
2022/03/26 02:17:37;;;;;;;149.05;75.22;;;;;;;2.09;100.00;100032.94;2083434;28;20261;-72
2022/03/26 02:18:39;;;;;;;151.90;73.55;;;;;;;2.11;100.00;100036.16;2082835;28;20219;-72
2022/03/26 02:19:47;;;;;;;163.60;78.25;;;;;;;2.16;100.00;100042.34;2083534;28;20192;-72
2022/03/26 02:20:50;;;;;;;145.02;74.05;;;;;;;2.17;100.00;100033.47;2083079;28;20178;-71
2022/03/26 02:21:52;;;;;;;150.93;74.15;;;;;;;2.21;100.00;100031.19;2082656;28;20207;-72
2022/03/26 02:22:55;;;;;;;149.13;74.05;;;;;;;2.23;100.00;100043.09;2082773;28;20188;-72
2022/03/26 02:23:56;;;;;;;149.05;74.22;;;;;;;2.23;100.00;100035.19;2083326;28;20191;-72
2022/03/26 02:24:59;;;;;;;145.98;72.82;;;;;;;2.25;100.00;100035.78;2082832;28;20291;-72
2022/03/26 02:26:00;;;;;;;139.38;70.82;;;;;;;2.24;100.00;100034.19;2082742;28;20667;-72
2022/03/26 02:27:07;;;;;;;147.25;71.53;;;;;;;2.25;100.00;100029.72;2083508;28;20194;-72
2022/03/26 02:28:09;;;;;;;147.77;74.20;;;;;;;2.23;100.00;100034.41;2083556;28;20203;-71
2022/03/26 02:29:13;;;;;;;151.50;74.22;;;;;;;2.23;100.00;100040.47;2082703;28;20210;-72
2022/03/26 02:30:14;;;;;;;146.05;71.85;;;;;;;2.21;100.00;100039.88;2082676;28;20192;-72
2022/03/26 02:31:17;;;;;;;141.35;72.03;;;;;;;2.21;100.00;100039.88;2082518;28;20238;-72
2022/03/26 02:32:21;;;;;;;157.75;74.28;;;;;;;2.21;100.00;100039.88;2082459;28;20231;-72
2022/03/26 02:33:24;;;;;;;147.13;69.82;;;;;;;2.21;100.00;100050.41;2074806;28;20264;-72
2022/03/26 02:34:26;;;;;;;145.18;70.70;;;;;;;2.19;100.00;100035.88;2082928;28;20249;-72
2022/03/26 02:35:30;;;;;;;141.68;71.20;;;;;;;2.16;100.00;100044.97;2083288;28;20192;-72
2022/03/26 02:36:31;;;;;;;143.75;71.13;;;;;;;2.15;100.00;100038.13;2082509;28;20223;-72
2022/03/26 02:37:34;;;;;;;141.98;70.90;;;;;;;2.21;100.00;100037.25;2082536;28;20204;-72
2022/03/26 02:38:37;;;;;;;143.88;70.60;;;;;;;2.24;100.00;100043.91;2083224;28;20203;-72
2022/03/26 02:39:40;;;;;;;143.48;71.20;;;;;;;2.21;100.00;100033.81;2082775;28;20203;-72
2022/03/26 02:40:42;;;;;;;145.93;71.50;;;;;;;2.26;100.00;100037.41;2074803;28;20287;-72
2022/03/26 02:41:44;;;;;;;144.95;71.55;;;;;;;2.29;100.00;100041.44;2082582;28;20180;-72
2022/03/26 02:42:46;;;;;;;140.80;71.15;;;;;;;2.31;100.00;100043.84;2083142;28;20718;-72
2022/03/26 02:43:48;;;;;;;147.93;71.30;;;;;;;2.30;100.00;100036.97;2083376;28;20187;-72
2022/03/26 02:44:50;;;;;;;141.35;69.90;;;;;;;2.30;100.00;100047.50;2082421;28;20227;-72
2022/03/26 02:45:52;;;;;;;133.93;68.22;;;;;;;2.29;100.00;100046.69;2074752;28;20201;-72
2022/03/26 02:46:55;;;;;;;136.35;70.32;;;;;;;2.24;100.00;100039.44;2074402;28;20200;-72
2022/03/26 02:48:00;;;;;;;146.98;71.93;;;;;;;2.22;100.00;100044.13;2074817;28;20224;-72
2022/03/26 02:49:01;;;;;;;140.82;68.90;;;;;;;2.25;100.00;100041.03;2082701;28;20211;-72
2022/03/26 02:50:04;;;;;;;141.57;70.22;;;;;;;2.22;100.00;100036.22;2081776;28;20769;-72
2022/03/26 02:51:07;;;;;;;134.27;69.03;;;;;;;2.21;100.00;100045.16;2074317;28;20283;-72
2022/03/26 02:52:10;;;;;;;134.80;69.28;;;;;;;2.15;100.00;100040.75;2082158;28;20203;-71
2022/03/26 02:53:17;;;;;;;145.32;70.38;;;;;;;2.11;100.00;100034.31;2082924;28;20232;-72
2022/03/26 02:54:24;;;;;;;142.25;69.03;;;;;;;2.11;100.00;100036.94;2082470;28;20630;-71
2022/03/26 02:55:25;;;;;;;137.98;71.35;;;;;;;2.09;100.00;100041.63;2082444;28;20722;-72
2022/03/26 02:56:28;;;;;;;133.07;65.88;;;;;;;2.05;100.00;100019.38;2082540;28;20188;-71
2022/03/26 02:57:29;;;;;;;140.68;70.28;;;;;;;2.05;100.00;100027.28;2083000;28;20208;-72
2022/03/26 02:58:32;;;;;;;139.75;69.35;;;;;;;2.01;100.00;100028.75;2083280;28;20199;-72
2022/03/26 02:59:33;;;;;;;142.65;68.65;;;;;;;2.03;100.00;100031.97;2082596;28;20203;-72
2022/03/26 03:00:38;;;;;;;150.45;69.03;;;;;;;2.03;100.00;100033.78;2082460;28;20188;-72
2022/03/26 03:01:39;;;;;;;146.02;69.97;;;;;;;2.04;100.00;100035.38;2083021;28;20270;-72
2022/03/26 03:02:42;;;;;;;136.07;69.50;;;;;;;2.08;100.00;100033.94;2083043;28;20655;-72
2022/03/26 03:03:44;;;;;;;137.48;70.80;;;;;;;2.08;100.00;100031.28;2082984;28;20191;-72
2022/03/26 03:04:46;;;;;;;153.80;71.05;;;;;;;2.08;100.00;100032.09;2083041;28;20192;-72
2022/03/26 03:05:48;;;;;;;139.57;70.47;;;;;;;2.06;100.00;100031.50;2081676;28;20203;-71
2022/03/26 03:06:52;;;;;;;139.50;71.22;;;;;;;2.08;100.00;100034.72;2082692;28;20202;-72
2022/03/26 03:07:54;;;;;;;138.25;69.13;;;;;;;2.10;100.00;100031.91;2082611;28;20697;-72
2022/03/26 03:08:56;;;;;;;141.85;69.72;;;;;;;2.11;100.00;100038.78;2082401;28;20651;-71
2022/03/26 03:09:57;;;;;;;144.88;71.95;;;;;;;2.11;100.00;100031.69;2082275;28;20261;-72
2022/03/26 03:11:00;;;;;;;144.25;71.55;;;;;;;2.06;100.00;100030.72;2074212;28;20212;-72
2022/03/26 03:12:02;;;;;;;139.95;67.90;;;;;;;2.06;100.00;100031.50;2074470;28;20216;-72
2022/03/26 03:13:04;;;;;;;134.32;68.07;;;;;;;2.06;100.00;100028.88;2082347;28;20202;-72
2022/03/26 03:14:06;;;;;;;134.88;68.97;;;;;;;2.06;100.00;100030.72;2082614;28;20589;-72
2022/03/26 03:15:12;;;;;;;138.73;68.93;;;;;;;2.08;100.00;100026.84;2082369;28;20207;-72
2022/03/26 03:16:14;;;;;;;143.32;69.13;;;;;;;2.06;100.00;100025.44;2083175;28;20196;-71
2022/03/26 03:17:16;;;;;;;138.57;68.90;;;;;;;2.06;100.00;100026.25;2082828;28;20198;-71
2022/03/26 03:18:22;;;;;;;139.25;67.90;;;;;;;2.03;100.00;100023.25;2082179;28;20250;-71
2022/03/26 03:19:23;;;;;;;133.45;68.10;;;;;;;1.99;100.00;100022.88;2082019;28;20199;-71
2022/03/26 03:20:27;;;;;;;135.93;70.32;;;;;;;1.95;100.00;100024.34;2082234;28;20199;-72
2022/03/26 03:21:28;;;;;;;132.75;67.72;;;;;;;1.91;100.00;100017.88;2081991;28;20289;-72
2022/03/26 03:22:33;;;;;;;138.10;69.03;;;;;;;1.90;100.00;100026.78;2082872;28;20211;-71
2022/03/26 03:23:35;;;;;;;135.95;70.30;;;;;;;1.89;100.00;100022.56;2083123;28;20572;-71
2022/03/26 03:24:40;;;;;;;136.18;70.03;;;;;;;1.85;100.00;100014.28;2082170;28;20219;-71
2022/03/26 03:25:41;;;;;;;133.40;66.60;;;;;;;1.82;100.00;100019.16;2082248;28;20532;-71
2022/03/26 03:26:44;;;;;;;133.23;71.35;;;;;;;1.81;100.00;100020.19;2082127;28;20203;-71
2022/03/26 03:27:46;;;;;;;144.13;70.40;;;;;;;1.83;100.00;100015.53;2082254;28;20225;-71
2022/03/26 03:28:49;;;;;;;141.25;71.32;;;;;;;1.81;100.00;100017.56;2082184;28;20202;-72
2022/03/26 03:29:50;;;;;;;137.38;70.45;;;;;;;1.81;100.00;100014.94;2082269;28;20286;-72
2022/03/26 03:30:53;;;;;;;139.82;70.95;;;;;;;1.79;100.00;100009.09;2082865;28;20192;-71
2022/03/26 03:31:55;;;;;;;143.65;70.22;;;;;;;1.80;100.00;100021.22;2082805;28;20195;-71
2022/03/26 03:32:58;;;;;;;141.77;69.50;;;;;;;1.81;100.00;100023.63;2082682;28;20294;-71
2022/03/26 03:33:59;;;;;;;148.70;70.88;;;;;;;1.81;100.00;100013.09;2082739;28;20719;-71
2022/03/26 03:35:03;;;;;;;142.30;70.38;;;;;;;1.80;100.00;100021.22;2082457;28;20208;-71
2022/03/26 03:36:05;;;;;;;132.80;71.18;;;;;;;1.76;100.00;100020.03;2074103;28;20204;-71
2022/03/26 03:37:07;;;;;;;141.80;70.93;;;;;;;1.75;100.00;100013.97;2082282;28;20234;-71
2022/03/26 03:38:10;;;;;;;144.73;73.13;;;;;;;1.72;100.00;100016.22;2082772;28;20219;-71
2022/03/26 03:39:13;;;;;;;136.55;70.60;;;;;;;1.70;100.00;100017.25;2082791;28;20191;-71
2022/03/26 03:40:14;;;;;;;132.43;69.07;;;;;;;1.67;100.00;100017.69;2081936;28;20204;-71
2022/03/26 03:41:17;;;;;;;139.55;70.35;;;;;;;1.66;100.00;100013.44;2074110;28;20223;-71
2022/03/26 03:42:18;;;;;;;134.00;71.80;;;;;;;1.64;100.00;100007.56;2082291;28;20271;-71
2022/03/26 03:43:22;;;;;;;134.30;68.50;;;;;;;1.64;100.00;100014.66;2082906;28;20192;-71
2022/03/26 03:44:26;;;;;;;143.25;69.40;;;;;;;1.61;100.00;100015.88;2082723;28;20445;-71
2022/03/26 03:45:28;;;;;;;139.55;69.38;;;;;;;1.59;100.00;100012.69;2082299;28;20658;-71
2022/03/26 03:46:30;;;;;;;142.85;70.18;;;;;;;1.63;100.00;100016.47;2073960;28;20594;-71
2022/03/26 03:47:33;;;;;;;136.93;68.55;;;;;;;1.61;100.00;100013.25;2082102;28;20175;-71
2022/03/26 03:48:34;;;;;;;136.25;67.53;;;;;;;1.59;100.00;100014.50;2081904;28;20299;-71
2022/03/26 03:49:36;;;;;;;132.82;68.60;;;;;;;1.59;100.00;100014.50;2082012;28;20203;-71
2022/03/26 03:50:37;;;;;;;146.95;70.28;;;;;;;1.57;100.00;100022.63;2081982;28;20204;-71
2022/03/26 03:51:40;;;;;;;135.93;69.20;;;;;;;1.52;100.00;100011.09;2073834;28;20228;-71
2022/03/26 03:52:42;;;;;;;149.10;72.03;;;;;;;1.50;100.00;100010.53;2082027;28;20231;-71
2022/03/26 03:53:46;;;;;;;148.18;71.97;;;;;;;1.57;100.00;100012.09;2082735;28;20196;-71
2022/03/26 03:54:47;;;;;;;146.00;70.95;;;;;;;1.55;100.00;100013.31;2082577;28;20275;-71
2022/03/26 03:55:50;;;;;;;141.52;69.07;;;;;;;1.54;100.00;100007.25;2082587;28;20191;-71
2022/03/26 03:56:51;;;;;;;152.88;70.70;;;;;;;1.56;100.00;100007.81;2081985;28;20207;-71
2022/03/26 03:57:54;;;;;;;140.48;69.85;;;;;;;1.54;100.00;100001.97;2073967;28;20224;-71
2022/03/26 03:58:56;;;;;;;129.93;68.15;;;;;;;1.54;100.00;100001.97;2073948;28;20211;-71
2022/03/26 03:59:58;;;;;;;146.63;70.55;;;;;;;1.54;100.00;100001.97;2081990;28;20647;-71
2022/03/26 04:01:00;;;;;;;144.02;70.22;;;;;;;1.53;100.00;100000.38;2082588;28;20206;-71
2022/03/26 04:02:02;;;;;;;147.52;71.15;;;;;;;1.51;100.00;99997.16;2082237;28;20253;-71
2022/03/26 04:03:04;;;;;;;141.77;70.82;;;;;;;1.52;100.00;99997.97;2082036;28;20548;-71
2022/03/26 04:04:07;;;;;;;142.25;69.65;;;;;;;1.49;100.00;99995.78;2081814;28;20200;-71
2022/03/26 04:05:09;;;;;;;148.60;71.40;;;;;;;1.48;100.00;99999.38;2082095;28;20275;-71
2022/03/26 04:06:12;;;;;;;140.07;70.70;;;;;;;1.47;100.00;100000.41;2081328;28;20603;-71
2022/03/26 04:07:13;;;;;;;143.48;69.10;;;;;;;1.48;100.00;100002.03;2073753;28;20204;-71
2022/03/26 04:08:17;;;;;;;147.57;70.80;;;;;;;1.47;100.00;99995.97;2073813;28;20204;-71
2022/03/26 04:09:20;;;;;;;144.32;71.60;;;;;;;1.51;100.00;100004.25;2074114;28;20242;-71
2022/03/26 04:10:22;;;;;;;150.80;72.68;;;;;;;1.52;100.00;100003.22;2082176;28;20275;-71
2022/03/26 04:11:23;;;;;;;151.48;73.57;;;;;;;1.54;100.00;100004.63;2081959;28;20192;-71
2022/03/26 04:12:25;;;;;;;142.93;71.65;;;;;;;1.58;100.00;100007.63;2081781;28;20199;-71
2022/03/26 04:13:27;;;;;;;140.82;71.88;;;;;;;1.62;100.00;100006.19;2073788;28;20200;-71
2022/03/26 04:14:30;;;;;;;137.73;69.43;;;;;;;1.61;100.00;100008.00;2081818;28;20191;-71
2022/03/26 04:15:33;;;;;;;146.70;70.65;;;;;;;1.65;100.00;100006.56;2082078;28;20722;-71
2022/03/26 04:16:34;;;;;;;138.48;70.15;;;;;;;1.67;100.00;100007.16;2074043;28;20212;-71
2022/03/26 04:17:37;;;;;;;142.30;69.65;;;;;;;1.66;100.00;100010.00;2081703;28;20306;-71
2022/03/26 04:18:38;;;;;;;140.90;70.25;;;;;;;1.69;100.00;100006.94;2082025;28;20255;-71
2022/03/26 04:19:41;;;;;;;151.80;71.50;;;;;;;1.79;100.00;100009.09;2081698;28;20206;-71
2022/03/26 04:20:43;;;;;;;135.57;70.90;;;;;;;1.77;100.00;100011.94;2073631;28;20204;-71
2022/03/26 04:21:45;;;;;;;143.20;71.28;;;;;;;1.72;100.00;100006.50;2073372;28;20215;-71
2022/03/26 04:22:47;;;;;;;140.35;71.93;;;;;;;1.68;100.00;100000.88;2081837;28;20593;-71
2022/03/26 04:23:49;;;;;;;142.10;72.40;;;;;;;1.67;100.00;100011.63;2081666;28;20303;-71
2022/03/26 04:24:56;;;;;;;146.40;71.82;;;;;;;1.65;100.00;100014.47;2081760;28;20223;-71
2022/03/26 04:26:05;;;;;;;145.05;72.13;;;;;;;1.61;100.00;100008.00;2081768;28;20210;-71
2022/03/26 04:27:07;;;;;;;140.45;71.45;;;;;;;1.61;100.00;100010.63;2082025;28;20238;-71
2022/03/26 04:28:09;;;;;;;150.82;71.68;;;;;;;1.59;100.00;99999.53;2081705;28;20654;-71
2022/03/26 04:29:11;;;;;;;144.27;71.18;;;;;;;1.59;100.00;100011.88;2073910;28;20224;-71
2022/03/26 04:30:14;;;;;;;140.23;71.28;;;;;;;1.56;100.00;100002.56;2081709;28;20192;-71
2022/03/26 04:31:16;;;;;;;148.75;70.45;;;;;;;1.54;100.00;100007.25;2082314;28;20187;-71
2022/03/26 04:32:19;;;;;;;141.93;70.38;;;;;;;1.54;100.00;100009.88;2081331;28;20241;-71
2022/03/26 04:33:22;;;;;;;145.98;72.93;;;;;;;1.58;100.00;100002.38;2081769;28;20188;-71
2022/03/26 04:34:23;;;;;;;133.43;71.13;;;;;;;1.59;100.00;100011.88;2082315;28;20195;-71
2022/03/26 04:35:26;;;;;;;133.82;72.55;;;;;;;1.57;100.00;100009.47;2082445;28;20188;-71
2022/03/26 04:36:28;;;;;;;141.70;70.88;;;;;;;1.55;100.00;100014.09;2081205;28;20231;-71
2022/03/26 04:37:29;;;;;;;140.63;71.68;;;;;;;1.51;100.00;100005.03;2081682;28;20229;-72
2022/03/26 04:38:32;;;;;;;141.35;72.45;;;;;;;1.50;100.00;99995.56;2082132;28;20232;-71
2022/03/26 04:39:38;;;;;;;136.35;70.35;;;;;;;1.52;100.00;100011.09;2082292;28;20566;-71
2022/03/26 04:40:41;;;;;;;135.27;68.35;;;;;;;1.52;100.00;100013.75;2082311;28;20207;-71
2022/03/26 04:41:42;;;;;;;145.70;72.78;;;;;;;1.53;100.00;100008.25;2081971;28;20203;-71